Time;durP1;ratioP1;P1;durP2;ratioP2;P2;SDS_P1;SDS_P2;PMS_P1;PMS_P2;Temp;Humidity;BMP_temperature;BMP_pressure;BME280_temperature;BME280_humidity;BME280_pressure;Samples;Min_cycle;Max_cycle;Signal;HPM_P1;HPM_P2
2023/02/12 00:02:23;;;;;;;6.10;3.70;;;;;;;6.24;100.00;102387.06;5089143;28;20537;-50
2023/02/12 00:04:49;;;;;;;5.90;2.80;;;;;;;6.30;100.00;102386.28;5103342;28;20530;-53
2023/02/12 00:07:16;;;;;;;5.20;3.63;;;;;;;6.17;100.00;102387.78;5103482;28;20448;-51
2023/02/12 00:09:43;;;;;;;7.20;4.97;;;;;;;6.19;100.00;102382.53;5101819;28;20445;-51
2023/02/12 00:12:09;;;;;;;6.97;5.77;;;;;;;6.22;100.00;102377.31;5106793;28;20472;-51
2023/02/12 00:14:36;;;;;;;6.70;4.73;;;;;;;6.08;100.00;102382.28;5108379;28;21017;-51
2023/02/12 00:17:03;;;;;;;7.23;4.53;;;;;;;5.89;100.00;102383.56;5098240;28;20498;-50
2023/02/12 00:19:29;;;;;;;3.73;3.37;;;;;;;5.88;100.00;102381.75;5087257;28;20450;-51
2023/02/12 00:21:56;;;;;;;7.87;4.73;;;;;;;5.97;100.00;102382.88;5094207;28;20984;-51
2023/02/12 00:24:22;;;;;;;11.80;3.57;;;;;;;6.08;100.00;102379.63;5096652;28;21064;-51
2023/02/12 00:26:49;;;;;;;5.63;4.00;;;;;;;6.12;100.00;102386.75;5081538;28;20453;-51
2023/02/12 00:29:16;;;;;;;7.43;5.03;;;;;;;6.13;100.00;102380.63;5104538;28;20452;-50
2023/02/12 00:31:42;;;;;;;6.63;6.23;;;;;;;6.09;100.00;102370.84;5100656;28;20483;-51
2023/02/12 00:34:10;;;;;;;9.97;5.10;;;;;;;6.09;100.00;102372.59;5093943;28;20559;-51
2023/02/12 00:36:36;;;;;;;6.17;5.53;;;;;;;6.10;100.00;102379.66;5105177;28;20489;-51
2023/02/12 00:39:03;;;;;;;6.07;3.87;;;;;;;5.99;100.00;102384.69;5108532;28;20453;-51
2023/02/12 00:41:30;;;;;;;10.87;5.73;;;;;;;5.98;100.00;102382.00;5091592;28;20473;-51
2023/02/12 00:43:56;;;;;;;5.87;4.97;;;;;;;6.10;100.00;102371.75;5105182;28;20492;-51
2023/02/12 00:46:23;;;;;;;12.23;4.80;;;;;;;6.12;100.00;102385.88;5104496;28;20444;-51
2023/02/12 00:48:49;;;;;;;5.10;3.53;;;;;;;6.17;100.00;102374.59;5100826;28;20455;-51
2023/02/12 00:51:16;;;;;;;9.70;4.27;;;;;;;6.11;100.00;102389.38;5104432;28;20471;-51
2023/02/12 00:53:42;;;;;;;10.23;6.20;;;;;;;6.21;100.00;102376.44;5107866;28;20451;-52
2023/02/12 00:56:09;;;;;;;10.97;5.63;;;;;;;6.19;100.00;102375.50;5103216;28;20444;-51
2023/02/12 00:58:35;;;;;;;9.53;5.37;;;;;;;6.14;100.00;102374.50;5108211;28;20995;-50
2023/02/12 01:01:01;;;;;;;10.07;6.90;;;;;;;5.97;100.00;102381.13;5104765;28;20899;-50
2023/02/12 01:03:28;;;;;;;9.97;5.07;;;;;;;5.66;100.00;102379.47;5100139;28;20475;-50
2023/02/12 01:05:55;;;;;;;6.77;4.30;;;;;;;5.82;100.00;102389.53;5103429;28;20583;-50
2023/02/12 01:08:23;;;;;;;7.80;4.23;;;;;;;5.99;100.00;102389.06;5107495;28;20449;-51
2023/02/12 01:10:58;;;;;;;4.07;3.30;;;;;;;6.21;100.00;102384.34;5103748;28;20472;-52
2023/02/12 01:13:25;;;;;;;3.67;3.17;;;;;;;6.16;100.00;102385.97;5107467;28;20453;-50
2023/02/12 01:16:09;;;;;;;4.83;4.50;;;;;;;6.19;100.00;102399.28;5106652;28;20440;-51
2023/02/12 01:18:37;;;;;;;5.90;5.37;;;;;;;6.16;100.00;102391.25;5090388;28;20447;-50
2023/02/12 01:21:12;;;;;;;7.20;6.70;;;;;;;6.14;100.00;102398.25;5100285;28;20468;-51
2023/02/12 01:23:39;;;;;;;6.13;5.57;;;;;;;6.12;100.00;102394.69;5103855;28;21001;-50
2023/02/12 01:26:09;;;;;;;5.57;3.40;;;;;;;6.13;100.00;102393.81;5096608;28;20486;-51
2023/02/12 01:28:40;;;;;;;4.93;4.63;;;;;;;6.04;100.00;102390.09;5107142;28;20452;-51
2023/02/12 01:31:19;;;;;;;8.23;5.87;;;;;;;6.15;100.00;102393.84;5100234;28;20885;-51
2023/02/12 01:33:51;;;;;;;8.73;6.03;;;;;;;6.12;100.00;102393.78;5089491;28;20541;-51
2023/02/12 01:36:18;;;;;;;13.17;5.57;;;;;;;6.18;100.00;102386.94;5088211;28;20440;-51
2023/02/12 01:38:45;;;;;;;5.60;5.17;;;;;;;6.19;100.00;102390.47;5111181;28;20452;-51
2023/02/12 01:41:15;;;;;;;9.40;6.13;;;;;;;6.04;100.00;102384.81;5100913;28;20464;-50
2023/02/12 01:43:42;;;;;;;6.33;3.90;;;;;;;6.08;100.00;102392.84;5099767;28;20469;-51
2023/02/12 01:46:12;;;;;;;10.67;4.13;;;;;;;6.18;100.00;102394.84;5104897;28;20485;-51
2023/02/12 01:48:42;;;;;;;4.43;3.93;;;;;;;6.23;100.00;102381.75;5106735;28;20447;-50
2023/02/12 01:51:13;;;;;;;7.40;6.70;;;;;;;6.29;100.00;102384.50;5102268;28;20968;-51
2023/02/12 01:53:45;;;;;;;6.90;3.83;;;;;;;6.24;100.00;102384.41;5098947;28;20853;-51
2023/02/12 01:56:13;;;;;;;8.93;5.80;;;;;;;6.22;100.00;102370.28;5102818;28;20444;-51
2023/02/12 01:58:42;;;;;;;4.77;4.40;;;;;;;6.19;100.00;102367.59;5105567;28;20449;-51
2023/02/12 02:01:15;;;;;;;6.03;4.80;;;;;;;6.26;100.00;102378.28;5086712;28;20893;-51
2023/02/12 02:03:46;;;;;;;8.13;5.13;;;;;;;6.24;100.00;102371.22;5081146;28;20444;-51
2023/02/12 02:06:18;;;;;;;5.37;4.00;;;;;;;6.27;100.00;102378.31;5081573;28;20857;-51
2023/02/12 02:08:45;;;;;;;10.30;5.27;;;;;;;6.26;100.00;102379.16;5087807;28;20456;-51
2023/02/12 02:16:51;;;;;;;10.77;5.83;;;;;;;6.24;100.00;102383.53;5106153;28;20938;-51
2023/02/12 02:19:43;;;;;;;3.30;3.13;;;;;;;6.18;100.00;102379.00;5105903;28;20501;-53
2023/02/12 02:22:30;;;;;;;10.13;5.90;;;;;;;6.15;100.00;102371.00;5094732;28;20479;-51
2023/02/12 02:25:11;;;;;;;5.40;5.07;;;;;;;6.10;100.00;102367.38;5105449;28;21015;-51
2023/02/12 02:28:05;;;;;;;12.40;5.60;;;;;;;6.15;100.00;102371.00;5101752;28;20490;-51
2023/02/12 02:30:44;;;;;;;6.87;4.87;;;;;;;6.11;100.00;102366.50;5099455;28;20832;-51
2023/02/12 02:33:23;;;;;;;5.03;3.93;;;;;;;6.11;100.00;102368.25;5094374;28;20473;-51
2023/02/12 02:36:07;;;;;;;4.77;4.43;;;;;;;6.10;100.00;102372.66;5088509;28;20448;-51
2023/02/12 02:39:02;;;;;;;5.20;4.80;;;;;;;6.08;100.00;102374.34;5099329;28;20453;-51
2023/02/12 02:41:41;;;;;;;6.27;5.67;;;;;;;6.06;100.00;102376.06;5091676;28;20496;-51
2023/02/12 02:44:25;;;;;;;4.60;4.30;;;;;;;6.06;100.00;102376.06;5099142;28;20440;-51
2023/02/12 02:46:53;;;;;;;6.03;5.47;;;;;;;6.03;100.00;102373.38;5098763;28;20896;-50
2023/02/12 02:49:32;;;;;;;4.53;4.23;;;;;;;5.95;100.00;102369.66;5105639;28;20475;-51
2023/02/12 02:52:05;;;;;;;5.17;3.37;;;;;;;6.15;100.00;102360.44;5098956;28;20465;-51
2023/02/12 02:54:43;;;;;;;5.37;3.20;;;;;;;6.54;100.00;102364.81;5102377;28;20451;-51
2023/02/12 02:57:18;;;;;;;6.90;4.90;;;;;;;6.41;100.00;102365.41;5105753;28;20447;-51
2023/02/12 03:00:02;;;;;;;8.80;5.00;;;;;;;6.27;100.00;102364.22;5105429;28;20512;-51
2023/02/12 03:02:37;;;;;;;3.70;3.40;;;;;;;6.29;100.00;102360.75;5073837;28;20879;-51
2023/02/12 03:05:09;;;;;;;6.20;4.93;;;;;;;6.31;100.00;102360.81;5105777;28;20490;-50
2023/02/12 03:07:41;;;;;;;8.87;4.23;;;;;;;6.28;100.00;102363.34;5103127;28;20440;-50
2023/02/12 03:10:16;;;;;;;3.80;3.50;;;;;;;6.16;100.00;102370.13;5099676;28;20478;-51
2023/02/12 03:12:50;;;;;;;17.17;5.27;;;;;;;6.04;100.00;102363.72;5103827;28;20531;-51
2023/02/12 03:15:27;;;;;;;4.17;3.87;;;;;;;6.16;100.00;102358.69;5089848;28;20943;-51
2023/02/12 03:17:57;;;;;;;10.93;4.70;;;;;;;6.15;100.00;102363.06;5110738;28;20458;-51
2023/02/12 03:20:29;;;;;;;6.73;3.33;;;;;;;6.15;100.00;102367.47;5095813;28;20472;-51
2023/02/12 03:23:18;;;;;;;3.93;3.63;;;;;;;6.21;100.00;102367.63;5109516;28;20441;-51
2023/02/12 03:26:33;;;;;;;15.00;4.57;;;;;;;6.21;100.00;102363.22;5109100;28;20488;-51
2023/02/12 03:29:00;;;;;;;5.10;3.20;;;;;;;6.36;100.00;102362.66;5000844;28;20460;-51
2023/02/12 03:31:32;;;;;;;18.83;4.83;;;;;;;6.40;100.00;102359.22;5001089;28;20487;-51
2023/02/12 03:34:01;;;;;;;4.73;4.40;;;;;;;6.33;100.00;102365.25;5062139;28;20937;-51
2023/02/12 03:36:40;;;;;;;4.23;2.70;;;;;;;6.41;100.00;102362.75;5104350;28;20809;-51
2023/02/12 03:39:16;;;;;;;4.30;3.93;;;;;;;6.32;100.00;102365.22;5102202;28;20444;-51
2023/02/12 03:41:50;;;;;;;15.00;5.13;;;;;;;6.36;100.00;102361.78;5103416;28;21030;-52
2023/02/12 03:44:55;;;;;;;8.93;4.00;;;;;;;6.30;100.00;102359.00;5108328;28;20440;-50
2023/02/12 03:47:28;;;;;;;6.40;3.57;;;;;;;6.26;100.00;102365.97;5108977;28;20448;-51
2023/02/12 03:50:02;;;;;;;7.13;4.90;;;;;;;6.39;100.00;102354.81;5095355;28;20455;-51
2023/02/12 03:52:28;;;;;;;4.10;3.73;;;;;;;6.39;100.00;102351.28;5109286;28;20445;-51
2023/02/12 03:54:55;;;;;;;3.70;3.40;;;;;;;6.27;100.00;102364.22;5108687;28;20493;-51
2023/02/12 03:57:29;;;;;;;12.23;7.67;;;;;;;6.23;100.00;102372.06;5098859;28;20497;-51
2023/02/12 04:00:03;;;;;;;4.50;4.20;;;;;;;6.03;100.00;102365.44;5101860;28;20451;-51
2023/02/12 04:02:29;;;;;;;5.30;4.90;;;;;;;6.01;100.00;102369.78;5107069;28;20445;-51
2023/02/12 04:04:56;;;;;;;7.23;4.37;;;;;;;6.18;100.00;102359.63;5109005;28;20454;-51
2023/02/12 04:07:22;;;;;;;3.47;3.20;;;;;;;6.14;100.00;102368.31;5103898;28;20444;-53
2023/02/12 04:09:49;;;;;;;5.13;3.17;;;;;;;6.13;100.00;102370.06;5100919;28;20457;-52
2023/02/12 04:12:29;;;;;;;8.60;3.80;;;;;;;6.16;100.00;102369.25;5106923;28;20518;-52
2023/02/12 04:15:24;;;;;;;20.73;3.63;;;;;;;6.06;100.00;102368.16;5108259;28;20436;-51
2023/02/12 04:18:00;;;;;;;3.70;2.30;;;;;;;6.00;100.00;102378.56;5108505;28;20437;-51
2023/02/12 04:20:50;;;;;;;18.60;3.70;;;;;;;6.04;100.00;102375.16;5094896;28;20473;-50
2023/02/12 04:23:46;;;;;;;3.87;3.63;;;;;;;6.43;100.00;102369.84;5079127;28;20809;-50
2023/02/12 04:26:53;;;;;;;5.40;4.50;;;;;;;6.34;100.00;102377.59;5105909;28;20580;-51
2023/02/12 04:29:40;;;;;;;5.20;4.70;;;;;;;6.26;100.00;102386.19;5104335;28;20949;-51
2023/02/12 04:32:32;;;;;;;6.40;4.40;;;;;;;6.19;100.00;102388.72;5078072;28;20557;-51
2023/02/12 04:35:11;;;;;;;6.37;5.77;;;;;;;6.17;100.00;102381.63;5092685;28;20451;-51
2023/02/12 04:37:56;;;;;;;10.67;3.50;;;;;;;6.23;100.00;102389.66;5093074;28;20481;-50
2023/02/12 04:40:22;;;;;;;8.47;3.67;;;;;;;6.23;100.00;102381.75;5098978;28;20518;-51
2023/02/12 04:42:51;;;;;;;6.50;5.13;;;;;;;6.24;100.00;102386.16;5088194;28;20452;-51
2023/02/12 04:45:23;;;;;;;4.10;3.77;;;;;;;6.22;100.00;102388.78;5101264;28;20457;-51
2023/02/12 04:47:49;;;;;;;4.90;4.50;;;;;;;6.20;100.00;102392.25;5106764;28;20453;-50
2023/02/12 04:50:16;;;;;;;12.10;4.77;;;;;;;6.14;100.00;102394.72;5107860;28;20496;-51
2023/02/12 04:52:42;;;;;;;3.63;3.43;;;;;;;6.16;100.00;102400.91;5102961;28;20456;-50
2023/02/12 04:55:09;;;;;;;4.00;3.70;;;;;;;6.15;100.00;102383.28;5100123;28;20445;-50
2023/02/12 04:57:35;;;;;;;8.37;3.87;;;;;;;6.04;100.00;102391.00;5106301;28;20463;-51
2023/02/12 05:00:04;;;;;;;4.53;4.13;;;;;;;5.97;100.00;102394.31;5107717;28;20444;-51
2023/02/12 05:02:33;;;;;;;7.93;4.27;;;;;;;6.06;100.00;102398.94;5086665;28;20454;-51
2023/02/12 05:04:59;;;;;;;5.73;3.53;;;;;;;6.15;100.00;102391.22;5103149;28;20871;-53
2023/02/12 05:07:26;;;;;;;4.20;3.80;;;;;;;6.14;100.00;102392.97;5104948;28;20489;-51
2023/02/12 05:09:53;;;;;;;4.87;4.47;;;;;;;6.16;100.00;102382.44;5107338;28;20444;-51
2023/02/12 05:12:20;;;;;;;7.50;3.90;;;;;;;6.17;100.00;102382.50;5104427;28;20454;-51
2023/02/12 05:14:46;;;;;;;3.50;3.30;;;;;;;6.19;100.00;102385.19;5100256;28;20455;-51
2023/02/12 05:17:13;;;;;;;5.23;4.40;;;;;;;6.20;100.00;102385.22;5103029;28;20506;-53
2023/02/12 05:19:39;;;;;;;6.40;5.17;;;;;;;6.18;100.00;102380.75;5106835;28;20946;-51
2023/02/12 05:22:05;;;;;;;14.50;4.93;;;;;;;6.19;100.00;102385.19;5103844;28;20471;-51
2023/02/12 05:24:32;;;;;;;7.20;6.07;;;;;;;6.14;100.00;102386.78;5100375;28;20448;-51
2023/02/12 05:26:58;;;;;;;4.70;4.30;;;;;;;6.19;100.00;102387.81;5099446;28;20540;-51
2023/02/12 05:29:25;;;;;;;6.80;5.37;;;;;;;6.18;100.00;102380.75;5094116;28;20448;-51
2023/02/12 05:31:51;;;;;;;8.43;5.03;;;;;;;6.13;100.00;102385.00;5102048;28;20465;-52
2023/02/12 05:34:19;;;;;;;7.17;3.90;;;;;;;6.20;100.00;102385.22;5106877;28;20460;-51
2023/02/12 05:36:45;;;;;;;7.90;5.97;;;;;;;6.14;100.00;102387.69;5104379;28;20444;-50
2023/02/12 05:39:11;;;;;;;8.30;5.23;;;;;;;6.17;100.00;102392.19;5100187;28;20444;-51
2023/02/12 05:41:38;;;;;;;16.13;4.83;;;;;;;6.11;100.00;102384.97;5102324;28;20465;-51
2023/02/12 05:44:05;;;;;;;4.43;4.10;;;;;;;6.08;100.00;102382.28;5106710;28;20445;-53
2023/02/12 05:46:32;;;;;;;3.97;3.67;;;;;;;6.21;100.00;102383.47;5096733;28;20495;-52
2023/02/12 05:48:58;;;;;;;8.20;6.27;;;;;;;6.19;100.00;102379.91;5105009;28;20452;-50
2023/02/12 05:51:26;;;;;;;3.63;3.40;;;;;;;6.17;100.00;102384.25;5104774;28;20518;-51
2023/02/12 05:53:59;;;;;;;6.20;5.60;;;;;;;6.17;100.00;102386.91;5099719;28;20531;-50
2023/02/12 05:56:28;;;;;;;6.70;3.43;;;;;;;6.21;100.00;102388.75;5099386;28;20456;-50
2023/02/12 05:59:03;;;;;;;11.10;5.07;;;;;;;6.18;100.00;102384.28;5106492;28;20937;-51
2023/02/12 06:01:36;;;;;;;12.60;4.80;;;;;;;6.15;100.00;102384.19;5105675;28;20494;-50
2023/02/12 06:04:04;;;;;;;5.23;4.83;;;;;;;6.09;100.00;102393.72;5090524;28;20441;-51
2023/02/12 06:06:32;;;;;;;4.97;4.50;;;;;;;6.10;100.00;102400.78;5099278;28;20979;-51
2023/02/12 06:08:59;;;;;;;6.07;4.70;;;;;;;6.07;100.00;102395.44;5103803;28;20527;-51
2023/02/12 06:11:27;;;;;;;4.40;4.10;;;;;;;6.06;100.00;102393.66;5100252;28;20507;-51
2023/02/12 06:13:53;;;;;;;7.40;6.10;;;;;;;6.10;100.00;102390.22;5103488;28;20452;-50
2023/02/12 06:16:21;;;;;;;14.93;7.50;;;;;;;6.14;100.00;102381.50;5104704;28;20451;-51
2023/02/12 06:18:48;;;;;;;12.57;4.90;;;;;;;6.15;100.00;102394.75;5092728;28;20506;-50
2023/02/12 06:21:17;;;;;;;14.63;8.30;;;;;;;6.15;100.00;102393.84;5084613;28;20478;-51
2023/02/12 06:23:43;;;;;;;9.77;6.10;;;;;;;6.16;100.00;102385.97;5102586;28;20444;-51
2023/02/12 06:26:10;;;;;;;6.93;4.47;;;;;;;6.13;100.00;102399.09;5098942;28;20839;-50
2023/02/12 06:28:36;;;;;;;4.27;3.87;;;;;;;6.08;100.00;102408.69;5096059;28;20465;-50
2023/02/12 06:31:04;;;;;;;10.43;5.47;;;;;;;6.09;100.00;102405.19;5097762;28;20479;-50
2023/02/12 06:33:31;;;;;;;8.47;6.40;;;;;;;6.06;100.00;102409.50;5089886;28;20878;-50
2023/02/12 06:35:57;;;;;;;11.20;5.07;;;;;;;6.01;100.00;102404.09;5106087;28;20441;-50
2023/02/12 06:38:23;;;;;;;4.30;4.00;;;;;;;5.96;100.00;102408.38;5102878;28;20451;-50
2023/02/12 06:40:50;;;;;;;9.67;6.73;;;;;;;5.90;100.00;102405.59;5098632;28;20555;-49
2023/02/12 06:43:16;;;;;;;19.43;7.30;;;;;;;5.75;100.00;102407.78;5102527;28;20445;-49
2023/02/12 06:45:43;;;;;;;23.17;8.73;;;;;;;5.81;100.00;102413.25;5108208;28;20497;-50
2023/02/12 06:48:09;;;;;;;7.07;5.83;;;;;;;5.81;100.00;102407.97;5111037;28;20452;-53
2023/02/12 06:50:36;;;;;;;10.83;6.83;;;;;;;5.82;100.00;102423.84;5080808;28;20471;-50
2023/02/12 06:53:02;;;;;;;8.97;6.27;;;;;;;5.85;100.00;102421.28;5105523;28;20970;-50
2023/02/12 06:55:29;;;;;;;12.70;8.10;;;;;;;5.91;100.00;102423.22;5106760;28;20449;-50
2023/02/12 06:57:55;;;;;;;15.33;5.17;;;;;;;5.90;100.00;102429.34;5102950;28;20561;-52
2023/02/12 07:00:22;;;;;;;5.67;5.30;;;;;;;6.27;100.00;102424.94;5098971;28;20495;-50
2023/02/12 07:02:53;;;;;;;7.10;4.70;;;;;;;6.23;100.00;102429.28;5100827;28;20540;-50
2023/02/12 07:05:20;;;;;;;8.53;5.53;;;;;;;6.19;100.00;102428.31;5087904;28;20818;-50
2023/02/12 07:07:47;;;;;;;8.33;7.33;;;;;;;6.26;100.00;102431.97;5102131;28;21000;-52
2023/02/12 07:10:13;;;;;;;7.10;4.47;;;;;;;6.19;100.00;102428.31;5098642;28;21063;-50
2023/02/12 07:12:40;;;;;;;19.77;5.97;;;;;;;6.15;100.00;102434.34;5104423;28;20452;-51
2023/02/12 07:15:06;;;;;;;7.10;5.73;;;;;;;6.14;100.00;102427.28;5098851;28;20440;-51
2023/02/12 07:17:33;;;;;;;28.50;7.23;;;;;;;6.12;100.00;102438.69;5100149;28;20780;-50
2023/02/12 07:19:59;;;;;;;15.33;4.40;;;;;;;6.11;100.00;102443.06;5100823;28;20445;-50
2023/02/12 07:22:26;;;;;;;6.87;5.07;;;;;;;6.09;100.00;102441.25;5112071;28;20452;-51
2023/02/12 07:24:52;;;;;;;16.93;5.90;;;;;;;6.09;100.00;102447.41;5099006;28;20547;-51
2023/02/12 07:27:19;;;;;;;8.13;5.20;;;;;;;6.08;100.00;102447.38;5095791;28;20484;-50
2023/02/12 07:29:45;;;;;;;11.13;9.67;;;;;;;6.13;100.00;102451.03;5085220;28;20455;-50
2023/02/12 07:32:11;;;;;;;20.70;8.17;;;;;;;6.19;100.00;102443.25;5084957;28;20502;-51
2023/02/12 07:34:38;;;;;;;19.23;10.17;;;;;;;6.30;100.00;102446.13;5100458;28;20449;-51
2023/02/12 07:37:06;;;;;;;11.13;7.83;;;;;;;6.20;100.00;102452.97;5107346;28;21012;-51
2023/02/12 07:39:32;;;;;;;8.37;5.97;;;;;;;6.22;100.00;102448.63;5099924;28;20441;-51
2023/02/12 07:41:59;;;;;;;27.27;8.60;;;;;;;6.18;100.00;102452.94;5068606;28;20481;-50
2023/02/12 07:44:25;;;;;;;13.93;7.00;;;;;;;6.13;100.00;102451.91;5101245;28;20459;-50
2023/02/12 07:46:51;;;;;;;12.97;6.20;;;;;;;6.28;100.00;102455.78;5067086;28;20853;-52
2023/02/12 07:49:20;;;;;;;24.50;7.70;;;;;;;6.23;100.00;102453.94;5094672;28;20449;-54
2023/02/12 07:51:48;;;;;;;7.93;6.23;;;;;;;6.44;100.00;102458.84;5093138;28;21007;-51
2023/02/12 07:54:15;;;;;;;8.70;5.70;;;;;;;6.28;100.00;102455.78;5099231;28;20452;-54
2023/02/12 07:56:45;;;;;;;9.00;6.40;;;;;;;6.33;100.00;102460.34;5102524;28;20444;-52
2023/02/12 07:59:15;;;;;;;10.53;5.53;;;;;;;6.47;100.00;102456.25;5105862;28;20445;-51
2023/02/12 08:01:45;;;;;;;6.20;5.60;;;;;;;6.50;100.00;102460.72;5100497;28;20467;-54
2023/02/12 08:04:15;;;;;;;9.50;5.33;;;;;;;6.61;100.00;102458.34;5103735;28;20447;-52
2023/02/12 08:06:43;;;;;;;9.40;7.10;;;;;;;6.58;100.00;102458.22;5098152;28;20544;-51
2023/02/12 08:09:13;;;;;;;11.57;10.07;;;;;;;6.60;100.00;102456.56;5112702;28;20454;-52
2023/02/12 08:11:40;;;;;;;11.23;6.10;;;;;;;6.77;100.00;102460.44;5096940;28;20896;-52
2023/02/12 08:14:10;;;;;;;39.27;9.50;;;;;;;6.90;100.00;102456.31;5103060;28;20898;-53
2023/02/12 08:16:38;;;;;;;7.13;5.60;;;;;;;6.85;100.00;102453.56;5100692;28;20444;-52
2023/02/12 08:19:06;;;;;;;7.13;6.50;;;;;;;6.97;100.00;102453.81;5095289;28;20458;-52
2023/02/12 08:21:47;;;;;;;12.27;6.43;;;;;;;6.82;100.00;102453.50;5078726;28;20566;-55
2023/02/12 08:24:14;;;;;;;7.80;7.10;;;;;;;6.71;100.00;102463.84;5101088;28;20445;-56
2023/02/12 08:26:40;;;;;;;7.97;7.20;;;;;;;6.48;100.00;102463.34;5096825;28;20539;-56
2023/02/12 08:29:13;;;;;;;9.27;6.20;;;;;;;6.58;100.00;102469.72;5077532;28;20456;-55
2023/02/12 08:31:42;;;;;;;10.13;6.23;;;;;;;6.75;100.00;102468.34;5084426;28;20557;-56
2023/02/12 08:34:24;;;;;;;9.63;4.60;;;;;;;6.86;100.00;102471.25;5084529;28;20454;-55
2023/02/12 08:36:55;;;;;;;10.90;5.17;;;;;;;6.96;100.00;102470.56;5095745;28;20464;-55
2023/02/12 08:39:24;;;;;;;7.23;5.43;;;;;;;7.03;100.00;102479.53;5107564;28;20527;-55
2023/02/12 08:41:53;;;;;;;17.73;6.57;;;;;;;6.98;100.00;102476.75;5091903;28;20474;-56
2023/02/12 08:44:19;;;;;;;10.03;6.03;;;;;;;7.15;100.00;102478.88;5093338;28;20971;-56
2023/02/12 08:46:49;;;;;;;8.97;5.33;;;;;;;7.09;100.00;102490.22;5091680;28;20482;-55
2023/02/12 08:49:19;;;;;;;8.30;6.43;;;;;;;7.09;100.00;102490.22;5099652;28;20833;-56
2023/02/12 08:51:48;;;;;;;26.40;6.30;;;;;;;7.05;100.00;102496.31;5090773;28;21049;-55
2023/02/12 08:54:18;;;;;;;6.73;4.37;;;;;;;7.34;100.00;102496.91;5094879;28;21080;-55
2023/02/12 08:56:45;;;;;;;21.53;6.30;;;;;;;7.35;100.00;102493.41;5107478;28;20975;-55
2023/02/12 08:59:13;;;;;;;19.03;8.30;;;;;;;7.16;100.00;102500.06;5088987;28;20475;-56
2023/02/12 09:01:41;;;;;;;12.00;6.50;;;;;;;7.15;100.00;102487.72;5091430;28;20516;-56
2023/02/12 09:04:17;;;;;;;9.50;6.83;;;;;;;7.10;100.00;102498.19;5096892;28;20530;-56
2023/02/12 09:06:45;;;;;;;6.93;6.33;;;;;;;7.17;100.00;102490.38;5106487;28;20479;-56
2023/02/12 09:09:12;;;;;;;13.30;6.43;;;;;;;7.16;100.00;102491.25;5082551;28;20528;-56
2023/02/12 09:11:39;;;;;;;7.30;6.60;;;;;;;7.21;100.00;102487.84;5095614;28;20482;-56
2023/02/12 09:14:09;;;;;;;10.90;5.37;;;;;;;7.24;100.00;102494.94;5091630;28;20444;-55
2023/02/12 09:16:37;;;;;;;6.93;6.40;;;;;;;7.19;100.00;102492.19;5093687;28;20999;-56
2023/02/12 09:19:03;;;;;;;10.30;7.27;;;;;;;7.28;100.00;102486.22;5103138;28;20526;-56
2023/02/12 09:21:29;;;;;;;12.87;6.13;;;;;;;7.26;100.00;102491.44;5098552;28;20475;-54
2023/02/12 09:23:56;;;;;;;6.93;5.90;;;;;;;7.36;100.00;102496.06;5097003;28;21021;-56
2023/02/12 09:26:26;;;;;;;6.70;5.00;;;;;;;7.41;100.00;102485.59;5093158;28;20456;-56
2023/02/12 09:28:54;;;;;;;15.17;8.20;;;;;;;7.48;100.00;102489.25;5093353;28;20966;-56
2023/02/12 09:31:28;;;;;;;13.70;9.20;;;;;;;7.49;100.00;102486.63;5089874;28;20465;-55
2023/02/12 09:33:59;;;;;;;7.23;6.60;;;;;;;7.51;100.00;102492.84;5094180;28;20966;-56
2023/02/12 09:36:26;;;;;;;8.70;6.03;;;;;;;7.62;100.00;102486.00;5097159;28;20460;-56
2023/02/12 09:38:56;;;;;;;8.97;7.30;;;;;;;7.72;100.00;102495.03;5100075;28;20449;-55
2023/02/12 09:41:43;;;;;;;14.93;9.57;;;;;;;7.67;100.00;102489.63;5104839;28;20469;-56
2023/02/12 09:44:37;;;;;;;9.43;8.63;;;;;;;7.72;100.00;102490.63;5106548;28;20463;-56
2023/02/12 09:47:29;;;;;;;10.67;9.57;;;;;;;7.56;100.00;102499.13;5106741;28;20494;-56
2023/02/12 09:50:21;;;;;;;23.57;6.47;;;;;;;7.67;100.00;102492.25;5105476;28;20467;-56
2023/02/12 09:52:48;;;;;;;9.67;6.20;;;;;;;7.75;100.00;102494.19;5091428;28;20498;-56
2023/02/12 09:55:17;;;;;;;13.43;6.37;;;;;;;8.10;100.00;102494.81;5099715;28;20449;-56
2023/02/12 09:57:44;;;;;;;12.13;9.17;;;;;;;8.00;100.00;102497.31;5103815;28;20446;-56
2023/02/12 10:00:21;;;;;;;9.67;7.43;;;;;;;7.99;100.00;102495.53;5106250;28;20480;-55
2023/02/12 10:02:51;;;;;;;13.47;8.27;;;;;;;7.98;100.00;102503.44;5082874;28;20441;-56
2023/02/12 10:05:25;;;;;;;11.10;7.00;;;;;;;7.98;100.00;102501.69;5105177;28;20855;-56
2023/02/12 10:08:10;;;;;;;12.17;8.77;;;;;;;8.06;100.00;102500.91;5106016;28;20498;-56
2023/02/12 10:10:46;;;;;;;12.27;7.83;;;;;;;7.99;100.00;102498.16;5104166;28;20526;-56
2023/02/12 10:13:30;;;;;;;11.90;6.93;;;;;;;8.20;100.00;102494.97;5106356;28;20452;-56
2023/02/12 10:16:16;;;;;;;13.57;8.17;;;;;;;8.39;100.00;102501.53;5105411;28;20444;-55
2023/02/12 10:18:45;;;;;;;13.53;9.00;;;;;;;8.46;100.00;102498.09;5089717;28;20444;-55
2023/02/12 10:21:34;;;;;;;17.50;9.13;;;;;;;8.52;100.00;102499.97;5098233;28;20511;-55
2023/02/12 10:24:23;;;;;;;16.53;10.03;;;;;;;8.46;100.00;102502.50;5100010;28;21003;-55
2023/02/12 10:26:54;;;;;;;23.20;7.87;;;;;;;8.68;100.00;102498.44;5087671;28;21121;-55
2023/02/12 10:29:24;;;;;;;16.57;9.77;;;;;;;8.97;100.00;102490.88;5106150;28;20817;-55
2023/02/12 10:31:56;;;;;;;18.60;11.50;;;;;;;8.75;100.00;102490.56;5097292;28;20470;-55
2023/02/12 10:34:35;;;;;;;20.17;10.87;;;;;;;8.75;100.00;102489.69;5095479;28;20443;-55
2023/02/12 10:37:23;;;;;;;26.93;8.90;;;;;;;9.00;100.00;102494.47;5099940;28;20449;-55
2023/02/12 10:39:56;;;;;;;19.20;10.03;;;;;;;8.90;100.00;102474.88;5089990;28;20451;-55
2023/02/12 10:42:29;;;;;;;16.30;8.87;;;;;;;8.94;100.00;102486.44;5098321;28;20504;-54
2023/02/12 10:44:55;;;;;;;12.67;9.03;;;;;;;9.03;100.00;102478.56;5101891;28;20453;-55
2023/02/12 10:47:23;;;;;;;17.50;11.23;;;;;;;9.07;100.00;102476.88;5087378;28;20502;-55
2023/02/12 10:49:57;;;;;;;16.50;9.90;;;;;;;9.10;100.00;102487.53;5092361;28;20476;-55
2023/02/12 10:52:37;;;;;;;22.47;10.73;;;;;;;9.18;100.00;102481.44;5105795;28;20938;-55
2023/02/12 10:55:30;;;;;;;13.63;11.07;;;;;;;9.17;100.00;102476.97;5105499;28;20450;-54
2023/02/12 10:57:58;;;;;;;24.40;10.90;;;;;;;9.40;100.00;102473.72;5103653;28;20435;-55
2023/02/12 11:00:32;;;;;;;35.87;12.00;;;;;;;9.55;99.61;102471.25;5098911;28;20478;-56
2023/02/12 11:03:05;;;;;;;20.50;10.33;;;;;;;9.53;99.24;102480.97;5099694;28;20444;-55
2023/02/12 11:05:34;;;;;;;28.57;11.00;;;;;;;9.38;100.00;102463.09;5085926;28;20440;-54
2023/02/12 11:08:01;;;;;;;26.87;12.53;;;;;;;9.42;100.00;102466.66;5098558;28;20499;-55
2023/02/12 11:10:40;;;;;;;18.17;9.33;;;;;;;9.37;100.00;102457.78;5105010;28;20556;-55
2023/02/12 11:13:24;;;;;;;15.03;8.77;;;;;;;9.52;100.00;102454.41;5105638;28;20444;-54
2023/02/12 11:15:51;;;;;;;16.23;9.97;;;;;;;9.80;100.00;102451.13;5103565;28;20540;-55
2023/02/12 11:18:26;;;;;;;14.93;10.30;;;;;;;9.57;100.00;102445.59;5098359;28;20448;-55
2023/02/12 11:21:01;;;;;;;21.77;11.40;;;;;;;9.51;100.00;102442.88;5098076;28;20537;-54
2023/02/12 11:23:31;;;;;;;14.83;9.07;;;;;;;9.56;100.00;102445.59;5088037;28;20819;-55
2023/02/12 11:26:21;;;;;;;18.57;10.17;;;;;;;9.49;100.00;102449.94;5098422;28;20451;-55
2023/02/12 11:28:55;;;;;;;16.00;10.17;;;;;;;9.59;100.00;102445.59;5105120;28;21019;-54
2023/02/12 11:31:36;;;;;;;17.20;9.57;;;;;;;9.42;100.00;102433.06;5099907;28;20506;-55
2023/02/12 11:34:03;;;;;;;20.00;8.83;;;;;;;9.62;100.00;102432.38;5104122;28;20808;-55
2023/02/12 11:36:34;;;;;;;16.87;9.20;;;;;;;9.61;100.00;102433.25;5104272;28;20447;-55
2023/02/12 11:39:01;;;;;;;22.43;9.27;;;;;;;9.64;100.00;102433.28;5084189;28;20967;-55
2023/02/12 11:41:38;;;;;;;13.97;9.00;;;;;;;9.39;100.00;102426.81;5106648;28;20495;-55
2023/02/12 11:44:18;;;;;;;21.63;11.40;;;;;;;9.26;100.00;102424.91;5091350;28;20444;-55
2023/02/12 11:46:54;;;;;;;28.93;10.63;;;;;;;9.24;100.00;102424.00;5108336;28;20440;-55
2023/02/12 11:49:26;;;;;;;22.47;9.87;;;;;;;9.40;100.00;102421.53;5089428;28;20451;-54